Alt del Mar, Puerto Rico
Current Conditions -  °F | °C
As of 9:50 PM on Sunday 25 Jan 2015 (Local Time) from TJBQ Reporting Station
Broken Clouds Broken Clouds  
Wind Chill: 73°   Ceiling: 6000
Heat Index: 73°   Visibility: 10mi
Dew Point: 68°   Wind: 3mph
Humidity: 83%   Direction: 140°SE
Pressure: 30.04"   Gusts: NA
Location:  18.4951°N, 67.0273°W
Report Text: TJBQ 260150Z 14003KT 10SM SCT042 BKN060 BKN070 23/20 A3004 RMK RWY08 ATIS Z
Loading
Personal Weather Stations






























Interactive Weather Map New forecast layout! Learn more

10-Day Weather Forecast

Advertisements
Track Severe Weather on mobile